Time;durP1;ratioP1;P1;durP2;ratioP2;P2;SDS_P1;SDS_P2;PMS_P1;PMS_P2;Temp;Humidity;BMP_temperature;BMP_pressure;BME280_temperature;BME280_humidity;BME280_pressure;Samples;Min_cycle;Max_cycle;Signal;HPM_P1;HPM_P2
2023/10/26 00:01:37;;;;;;;32.45;22.27;;;;;;;;;;4981950;28;20412;-85
2023/10/26 00:04:03;;;;;;;32.88;22.70;;;;;;;;;;4980777;28;20047;-84
2023/10/26 00:06:29;;;;;;;31.92;22.67;;;;;;;;;;4977815;28;20109;-84
2023/10/26 00:08:55;;;;;;;30.58;22.85;;;;;;;;;;4966959;28;20039;-84
2023/10/26 00:11:21;;;;;;;33.70;24.08;;;;;;;;;;4980047;28;20042;-84
2023/10/26 00:13:47;;;;;;;40.42;25.35;;;;;;;;;;4985671;28;20456;-84
2023/10/26 00:16:13;;;;;;;33.00;24.25;;;;;;;;;;4976890;28;20058;-85
2023/10/26 00:18:39;;;;;;;36.92;25.65;;;;;;;;;;4978178;28;20053;-85
2023/10/26 00:21:06;;;;;;;41.15;26.45;;;;;;;;;;4978515;28;20508;-84
2023/10/26 00:23:32;;;;;;;37.63;26.48;;;;;;;;;;4978327;28;20050;-84
2023/10/26 00:25:58;;;;;;;40.10;27.23;;;;;;;;;;4967763;28;20043;-85
2023/10/26 00:28:24;;;;;;;39.58;27.38;;;;;;;;;;4977253;28;20049;-85
2023/10/26 00:30:50;;;;;;;43.95;28.88;;;;;;;;;;4982653;28;20404;-84
2023/10/26 00:33:16;;;;;;;44.08;29.45;;;;;;;;;;4981815;28;20038;-84
2023/10/26 00:35:42;;;;;;;48.53;30.55;;;;;;;;;;4981150;28;20049;-85
2023/10/26 00:38:08;;;;;;;39.95;29.90;;;;;;;;;;4984306;28;20049;-84
2023/10/26 00:40:34;;;;;;;47.45;32.17;;;;;;;;;;4978716;28;20048;-84
2023/10/26 00:43:00;;;;;;;48.10;32.47;;;;;;;;;;4966401;28;20063;-84
2023/10/26 00:45:27;;;;;;;52.95;34.13;;;;;;;;;;4979447;28;20258;-84
2023/10/26 00:47:53;;;;;;;51.08;33.85;;;;;;;;;;4981363;28;20077;-84
2023/10/26 00:50:20;;;;;;;53.83;34.75;;;;;;;;;;4981984;28;20050;-84
2023/10/26 00:52:46;;;;;;;50.42;35.03;;;;;;;;;;4982486;28;20481;-83
2023/10/26 00:55:12;;;;;;;57.00;36.13;;;;;;;;;;4982824;28;20046;-84
2023/10/26 00:57:38;;;;;;;50.92;36.70;;;;;;;;;;4982155;28;20117;-83
2023/10/26 01:00:07;;;;;;;57.00;37.35;;;;;;;;;;4982480;28;20057;-83
2023/10/26 01:02:33;;;;;;;59.67;37.80;;;;;;;;;;4982771;28;20455;-83
2023/10/26 01:04:59;;;;;;;64.70;37.38;;;;;;;;;;4981270;28;20047;-83
2023/10/26 01:07:25;;;;;;;57.45;38.38;;;;;;;;;;4980736;28;20109;-83
2023/10/26 01:09:51;;;;;;;61.65;39.25;;;;;;;;;;4977091;28;20095;-83
2023/10/26 01:12:17;;;;;;;60.03;38.72;;;;;;;;;;4982634;28;20089;-83
2023/10/26 01:14:45;;;;;;;52.50;36.90;;;;;;;;;;4980875;28;20106;-83
2023/10/26 01:17:11;;;;;;;53.33;38.70;;;;;;;;;;4979989;28;20131;-83
2023/10/26 01:19:41;;;;;;;56.78;38.88;;;;;;;;;;4982043;28;20045;-83
2023/10/26 01:22:08;;;;;;;55.92;38.92;;;;;;;;;;4981685;28;20031;-84
2023/10/26 01:24:34;;;;;;;61.38;40.42;;;;;;;;;;4980765;28;20043;-83
2023/10/26 01:27:00;;;;;;;63.70;41.53;;;;;;;;;;4981590;28;20050;-83
2023/10/26 01:29:26;;;;;;;64.57;42.38;;;;;;;;;;4981597;28;20035;-83
2023/10/26 01:31:52;;;;;;;64.65;41.35;;;;;;;;;;4982587;28;20042;-84
2023/10/26 01:34:18;;;;;;;66.82;43.92;;;;;;;;;;4980702;28;20047;-83
2023/10/26 01:36:44;;;;;;;66.13;43.20;;;;;;;;;;4980781;28;20053;-83
2023/10/26 01:39:11;;;;;;;64.93;43.55;;;;;;;;;;4981536;28;20074;-83
2023/10/26 01:41:37;;;;;;;67.40;44.53;;;;;;;;;;4979537;28;20042;-83
2023/10/26 01:44:03;;;;;;;70.18;45.55;;;;;;;;;;4994620;28;20506;-83
2023/10/26 01:46:29;;;;;;;68.60;45.67;;;;;;;;;;4979381;28;20050;-81
2023/10/26 01:48:56;;;;;;;72.18;45.45;;;;;;;;;;4981861;28;20039;-83
2023/10/26 01:51:22;;;;;;;61.20;43.92;;;;;;;;;;4980980;28;20058;-83
2023/10/26 01:53:48;;;;;;;66.53;44.47;;;;;;;;;;4983240;28;20102;-83
2023/10/26 01:56:14;;;;;;;62.30;44.17;;;;;;;;;;4978757;28;20069;-82
2023/10/26 01:58:40;;;;;;;65.20;44.55;;;;;;;;;;4982270;28;20138;-82
2023/10/26 02:01:06;;;;;;;67.97;44.28;;;;;;;;;;4980672;28;20047;-83
2023/10/26 02:03:32;;;;;;;69.60;44.90;;;;;;;;;;4981184;28;20058;-83
2023/10/26 02:05:58;;;;;;;66.75;44.30;;;;;;;;;;4968341;28;20043;-83
2023/10/26 02:08:24;;;;;;;68.70;44.83;;;;;;;;;;4997012;28;20046;-83
2023/10/26 02:10:50;;;;;;;65.07;44.15;;;;;;;;;;4992508;28;20046;-83
2023/10/26 02:13:16;;;;;;;75.07;46.22;;;;;;;;;;4986963;28;20472;-83
2023/10/26 02:15:42;;;;;;;79.70;45.92;;;;;;;;;;4981622;28;20034;-83
2023/10/26 02:18:08;;;;;;;73.78;45.70;;;;;;;;;;4984364;28;20492;-83
2023/10/26 02:20:34;;;;;;;82.78;45.38;;;;;;;;;;4985851;28;20055;-82
2023/10/26 02:23:02;;;;;;;75.20;44.65;;;;;;;;;;4982077;28;20080;-83
2023/10/26 02:25:28;;;;;;;69.00;44.22;;;;;;;;;;4986382;28;20496;-83
2023/10/26 02:27:54;;;;;;;67.55;44.60;;;;;;;;;;4986122;28;20153;-83
2023/10/26 02:30:20;;;;;;;73.00;44.05;;;;;;;;;;4980933;28;20046;-83
2023/10/26 02:32:46;;;;;;;67.90;45.85;;;;;;;;;;4986455;28;20074;-83
2023/10/26 02:35:12;;;;;;;77.45;44.17;;;;;;;;;;4982298;28;20070;-82
2023/10/26 02:37:38;;;;;;;80.47;44.30;;;;;;;;;;4996537;28;20050;-83
2023/10/26 02:40:10;;;;;;;66.25;42.90;;;;;;;;;;4988993;28;20118;-82
2023/10/26 02:42:37;;;;;;;67.00;41.97;;;;;;;;;;4979904;28;20105;-83
2023/10/26 02:45:03;;;;;;;81.18;45.25;;;;;;;;;;4970276;28;20053;-83
2023/10/26 02:47:30;;;;;;;79.40;45.63;;;;;;;;;;4983761;28;20054;-83
2023/10/26 02:49:56;;;;;;;73.78;44.20;;;;;;;;;;4981288;28;20126;-83
2023/10/26 02:52:22;;;;;;;70.43;44.65;;;;;;;;;;4984239;28;20042;-83
2023/10/26 02:54:49;;;;;;;78.18;45.10;;;;;;;;;;4985699;28;20098;-83
2023/10/26 02:57:15;;;;;;;73.45;45.55;;;;;;;;;;4985475;28;20050;-83
2023/10/26 02:59:41;;;;;;;69.53;43.55;;;;;;;;;;4979889;28;20051;-83
2023/10/26 03:02:07;;;;;;;70.43;44.63;;;;;;;;;;4983104;28;20050;-83
2023/10/26 03:04:38;;;;;;;76.30;45.08;;;;;;;;;;4967851;28;20047;-83
2023/10/26 03:07:04;;;;;;;72.97;43.47;;;;;;;;;;4995899;28;20051;-83
2023/10/26 03:09:30;;;;;;;74.18;43.50;;;;;;;;;;4984532;28;20038;-82
2023/10/26 03:11:56;;;;;;;72.20;43.17;;;;;;;;;;4985961;28;20066;-83
2023/10/26 03:14:22;;;;;;;84.35;44.47;;;;;;;;;;4985659;28;20130;-83
2023/10/26 03:16:48;;;;;;;66.40;41.50;;;;;;;;;;4974343;28;20054;-83
2023/10/26 03:19:15;;;;;;;75.65;43.22;;;;;;;;;;4975223;28;20061;-83
2023/10/26 03:21:41;;;;;;;87.85;45.95;;;;;;;;;;4983164;28;20141;-83
2023/10/26 03:24:07;;;;;;;77.18;42.55;;;;;;;;;;4985675;28;20046;-83
2023/10/26 03:26:33;;;;;;;63.17;40.20;;;;;;;;;;4975356;28;20501;-84
2023/10/26 03:28:59;;;;;;;79.15;43.97;;;;;;;;;;4992925;28;20045;-83
2023/10/26 03:31:25;;;;;;;78.68;43.95;;;;;;;;;;4993105;28;20452;-83
2023/10/26 03:33:51;;;;;;;86.38;44.63;;;;;;;;;;4983282;28;20500;-83
2023/10/26 03:36:19;;;;;;;69.07;42.10;;;;;;;;;;4983702;28;20039;-83
2023/10/26 03:38:45;;;;;;;68.85;42.78;;;;;;;;;;4953509;28;20067;-84
2023/10/26 03:41:11;;;;;;;75.00;42.72;;;;;;;;;;4984585;28;20042;-84
2023/10/26 03:43:37;;;;;;;65.53;41.28;;;;;;;;;;4983074;28;20046;-83
2023/10/26 03:46:04;;;;;;;71.22;42.47;;;;;;;;;;4980535;28;20070;-84
2023/10/26 03:48:31;;;;;;;71.88;42.75;;;;;;;;;;4981682;28;20098;-83
2023/10/26 03:50:57;;;;;;;74.18;44.20;;;;;;;;;;4982192;28;20043;-84
2023/10/26 03:53:26;;;;;;;78.20;42.47;;;;;;;;;;4965022;28;20042;-84
2023/10/26 03:55:53;;;;;;;75.88;43.53;;;;;;;;;;4981338;28;20106;-83
2023/10/26 03:58:19;;;;;;;80.88;44.25;;;;;;;;;;4981374;28;20049;-84
2023/10/26 04:00:47;;;;;;;66.40;42.47;;;;;;;;;;4982232;28;20046;-84
2023/10/26 04:03:13;;;;;;;68.45;41.40;;;;;;;;;;4981393;28;20515;-84
2023/10/26 04:05:39;;;;;;;79.90;42.92;;;;;;;;;;4981546;28;20042;-84
2023/10/26 04:08:06;;;;;;;74.32;42.20;;;;;;;;;;4983051;28;20047;-84
2023/10/26 04:10:32;;;;;;;83.47;44.67;;;;;;;;;;4982003;28;20058;-84
2023/10/26 04:12:58;;;;;;;79.65;44.80;;;;;;;;;;4965689;28;20412;-83
2023/10/26 04:15:24;;;;;;;73.00;43.92;;;;;;;;;;4981508;28;20078;-83
2023/10/26 04:17:50;;;;;;;63.40;40.75;;;;;;;;;;4979503;28;20044;-84
2023/10/26 04:20:16;;;;;;;77.82;43.50;;;;;;;;;;4970651;28;20046;-84
2023/10/26 04:22:42;;;;;;;82.85;43.17;;;;;;;;;;4982099;28;20082;-84
2023/10/26 04:25:08;;;;;;;76.95;42.90;;;;;;;;;;4982553;28;20053;-84
2023/10/26 04:27:35;;;;;;;73.22;41.95;;;;;;;;;;4977701;28;20098;-84
2023/10/26 04:30:01;;;;;;;66.53;40.70;;;;;;;;;;4980816;28;20140;-84
2023/10/26 04:32:27;;;;;;;73.10;41.53;;;;;;;;;;4983511;28;20046;-83
2023/10/26 04:34:54;;;;;;;65.45;40.55;;;;;;;;;;4982704;28;20392;-83
2023/10/26 04:37:20;;;;;;;75.75;42.60;;;;;;;;;;4981720;28;20051;-83
2023/10/26 04:39:46;;;;;;;71.53;42.35;;;;;;;;;;4982438;28;20046;-82
2023/10/26 04:42:12;;;;;;;76.30;42.17;;;;;;;;;;4965067;28;20063;-83
2023/10/26 04:44:39;;;;;;;75.15;43.30;;;;;;;;;;4982444;28;20440;-83
2023/10/26 04:47:05;;;;;;;76.20;41.75;;;;;;;;;;4982744;28;20049;-83
2023/10/26 04:49:31;;;;;;;72.68;43.70;;;;;;;;;;4980290;28;20054;-83
2023/10/26 04:52:00;;;;;;;75.07;42.88;;;;;;;;;;4981413;28;20043;-83
2023/10/26 04:54:29;;;;;;;90.25;46.58;;;;;;;;;;4964541;28;20046;-83
2023/10/26 04:56:55;;;;;;;72.78;43.75;;;;;;;;;;4981005;28;20047;-83
2023/10/26 04:59:21;;;;;;;83.47;44.92;;;;;;;;;;4980055;28;20060;-83
2023/10/26 05:01:47;;;;;;;77.18;44.28;;;;;;;;;;4988567;28;20129;-83
2023/10/26 05:04:13;;;;;;;84.10;44.60;;;;;;;;;;4980088;28;20081;-83
2023/10/26 05:06:39;;;;;;;83.90;44.38;;;;;;;;;;4979494;28;20531;-83
2023/10/26 05:09:05;;;;;;;84.45;45.03;;;;;;;;;;4978306;28;20043;-83
2023/10/26 05:11:32;;;;;;;72.32;44.17;;;;;;;;;;4979823;28;20381;-83
2023/10/26 05:14:03;;;;;;;75.95;44.53;;;;;;;;;;4968350;28;20047;-83
2023/10/26 05:16:29;;;;;;;80.18;44.50;;;;;;;;;;4980909;28;20054;-83
2023/10/26 05:18:55;;;;;;;85.22;45.40;;;;;;;;;;4961647;28;20047;-83
2023/10/26 05:21:21;;;;;;;68.43;41.03;;;;;;;;;;4973515;28;20106;-83
2023/10/26 05:23:47;;;;;;;91.70;45.00;;;;;;;;;;4975094;28;20055;-84
2023/10/26 05:26:13;;;;;;;88.38;45.53;;;;;;;;;;4979587;28;20043;-83
2023/10/26 05:28:39;;;;;;;65.88;42.35;;;;;;;;;;4974570;28;20054;-83
2023/10/26 05:31:05;;;;;;;71.28;42.53;;;;;;;;;;4972273;28;20055;-83
2023/10/26 05:33:31;;;;;;;72.97;43.35;;;;;;;;;;4982550;28;20101;-83
2023/10/26 05:36:00;;;;;;;89.05;44.55;;;;;;;;;;4973693;28;20547;-83
2023/10/26 05:38:26;;;;;;;79.45;44.70;;;;;;;;;;4958803;28;20050;-83
2023/10/26 05:40:55;;;;;;;78.90;43.97;;;;;;;;;;4963853;28;20045;-84
2023/10/26 05:43:21;;;;;;;79.53;45.10;;;;;;;;;;4985759;28;20488;-84
2023/10/26 05:45:47;;;;;;;76.85;44.30;;;;;;;;;;4972558;28;20179;-83
2023/10/26 05:48:13;;;;;;;76.63;43.42;;;;;;;;;;4982556;28;20045;-84
2023/10/26 05:50:42;;;;;;;79.35;43.95;;;;;;;;;;4977450;28;20045;-83
2023/10/26 05:53:08;;;;;;;79.88;43.33;;;;;;;;;;4984838;28;20050;-83
2023/10/26 05:55:34;;;;;;;69.65;41.78;;;;;;;;;;4969483;28;20134;-84
2023/10/26 05:58:00;;;;;;;84.55;44.20;;;;;;;;;;4973641;28;20050;-83
2023/10/26 06:00:26;;;;;;;80.75;43.13;;;;;;;;;;4979159;28;20512;-84
2023/10/26 06:02:52;;;;;;;80.72;43.78;;;;;;;;;;4981364;28;20055;-84
2023/10/26 06:05:19;;;;;;;73.47;41.25;;;;;;;;;;4984517;28;20042;-83
2023/10/26 06:07:45;;;;;;;76.53;40.45;;;;;;;;;;4983453;28;20054;-83
2023/10/26 06:10:11;;;;;;;75.03;42.25;;;;;;;;;;4982823;28;20097;-84
2023/10/26 06:12:38;;;;;;;77.45;41.92;;;;;;;;;;4982856;28;20057;-84
2023/10/26 06:15:07;;;;;;;81.75;41.45;;;;;;;;;;4963160;28;20049;-84
2023/10/26 06:17:33;;;;;;;74.78;40.75;;;;;;;;;;4980731;28;20133;-83
2023/10/26 06:19:59;;;;;;;75.60;41.17;;;;;;;;;;4983321;28;20404;-84
2023/10/26 06:22:25;;;;;;;81.68;42.60;;;;;;;;;;4985130;28;20053;-84
2023/10/26 06:24:51;;;;;;;93.70;41.90;;;;;;;;;;4984694;28;20086;-84
2023/10/26 06:27:17;;;;;;;71.00;41.55;;;;;;;;;;4984301;28;20054;-84
2023/10/26 06:29:44;;;;;;;79.90;41.92;;;;;;;;;;4986001;28;20165;-83
2023/10/26 06:32:12;;;;;;;78.35;42.45;;;;;;;;;;4985230;28;20082;-83
2023/10/26 06:34:40;;;;;;;82.88;42.58;;;;;;;;;;4985751;28;20072;-84
2023/10/26 06:37:06;;;;;;;77.57;42.85;;;;;;;;;;4984974;28;20043;-84
2023/10/26 06:39:32;;;;;;;75.75;42.42;;;;;;;;;;4968432;28;20101;-84
2023/10/26 06:41:58;;;;;;;81.57;43.22;;;;;;;;;;4985560;28;20046;-84
2023/10/26 06:44:24;;;;;;;76.70;42.67;;;;;;;;;;4985651;28;20138;-84
2023/10/26 06:46:50;;;;;;;69.50;40.78;;;;;;;;;;4985777;28;20550;-84
2023/10/26 06:49:16;;;;;;;85.28;43.60;;;;;;;;;;4967655;28;20078;-84
2023/10/26 06:51:42;;;;;;;74.65;43.45;;;;;;;;;;4984873;28;20050;-84
2023/10/26 06:54:09;;;;;;;88.50;45.17;;;;;;;;;;4985559;28;20058;-84
2023/10/26 06:56:36;;;;;;;84.30;45.13;;;;;;;;;;4983941;28;20050;-84
2023/10/26 06:59:02;;;;;;;96.32;45.97;;;;;;;;;;4982751;28;20086;-84
2023/10/26 07:01:28;;;;;;;86.88;43.53;;;;;;;;;;4984244;28;20437;-85
2023/10/26 07:03:54;;;;;;;93.53;43.72;;;;;;;;;;4984228;28;20050;-84
2023/10/26 07:06:20;;;;;;;82.78;43.20;;;;;;;;;;4984984;28;20200;-84
2023/10/26 07:08:46;;;;;;;86.60;46.53;;;;;;;;;;4983019;28;20043;-84
2023/10/26 07:11:12;;;;;;;97.90;47.40;;;;;;;;;;4972089;28;20039;-84
2023/10/26 07:13:38;;;;;;;79.15;44.72;;;;;;;;;;5004797;28;20072;-84
2023/10/26 07:16:05;;;;;;;95.22;46.15;;;;;;;;;;4990506;28;20082;-85
2023/10/26 07:18:31;;;;;;;87.68;44.78;;;;;;;;;;4967742;28;20558;-83
2023/10/26 07:20:57;;;;;;;84.53;44.38;;;;;;;;;;4984634;28;20062;-83
2023/10/26 07:23:23;;;;;;;85.38;44.63;;;;;;;;;;4985524;28;20055;-82
2023/10/26 07:25:50;;;;;;;75.78;41.92;;;;;;;;;;4984711;28;20050;-83
2023/10/26 07:28:16;;;;;;;82.10;43.38;;;;;;;;;;4985099;28;20104;-82
2023/10/26 07:30:42;;;;;;;70.45;41.42;;;;;;;;;;4999683;28;20129;-82
2023/10/26 07:33:08;;;;;;;80.63;44.70;;;;;;;;;;5004087;28;20054;-83
2023/10/26 07:35:40;;;;;;;76.70;44.28;;;;;;;;;;5003955;28;20050;-83
2023/10/26 07:38:09;;;;;;;84.50;45.78;;;;;;;;;;5004166;28;20546;-84
2023/10/26 07:40:37;;;;;;;81.82;43.25;;;;;;;;;;4995665;28;20112;-83
2023/10/26 07:43:04;;;;;;;76.10;42.83;;;;;;;;;;4983404;28;20055;-82
2023/10/26 07:45:30;;;;;;;67.40;40.95;;;;;;;;;;4980486;28;20054;-83
2023/10/26 07:47:56;;;;;;;75.80;43.17;;;;;;;;;;4982704;28;20106;-82
2023/10/26 07:50:22;;;;;;;60.13;39.70;;;;;;;;;;4977228;28;20050;-82
2023/10/26 07:52:49;;;;;;;60.85;38.88;;;;;;;;;;4980311;28;20396;-83
2023/10/26 07:55:17;;;;;;;61.30;39.35;;;;;;;;;;4979926;28;20093;-82
2023/10/26 07:57:43;;;;;;;57.92;36.72;;;;;;;;;;4973548;28;20115;-81
2023/10/26 08:00:11;;;;;;;55.63;38.05;;;;;;;;;;4975693;28;20077;-83
2023/10/26 08:02:37;;;;;;;53.55;36.05;;;;;;;;;;4980578;28;20416;-83
2023/10/26 08:05:03;;;;;;;62.00;39.72;;;;;;;;;;4981449;28;20050;-83
2023/10/26 08:07:29;;;;;;;64.38;42.38;;;;;;;;;;4984368;28;20055;-83
2023/10/26 08:09:56;;;;;;;59.50;40.42;;;;;;;;;;4984521;28;20050;-84
2023/10/26 08:12:22;;;;;;;47.28;34.67;;;;;;;;;;4963953;29;20051;-82
2023/10/26 08:14:51;;;;;;;43.75;34.50;;;;;;;;;;4978971;28;20050;-83
2023/10/26 08:17:17;;;;;;;47.92;35.15;;;;;;;;;;4968149;28;20039;-83
2023/10/26 08:19:43;;;;;;;48.05;35.05;;;;;;;;;;4981564;28;20720;-83
2023/10/26 08:22:10;;;;;;;40.58;31.17;;;;;;;;;;4983251;28;20364;-83
2023/10/26 08:24:36;;;;;;;40.17;29.95;;;;;;;;;;4982224;28;20142;-82
2023/10/26 08:27:03;;;;;;;41.30;32.53;;;;;;;;;;4982941;28;20038;-83
2023/10/26 08:29:29;;;;;;;41.38;32.00;;;;;;;;;;4982333;28;20050;-83
2023/10/26 08:31:55;;;;;;;38.53;30.48;;;;;;;;;;4982887;28;20133;-82
2023/10/26 08:34:21;;;;;;;39.00;29.75;;;;;;;;;;4987198;28;20046;-82
2023/10/26 08:36:47;;;;;;;37.30;29.48;;;;;;;;;;4985587;28;20047;-80
2023/10/26 08:39:14;;;;;;;37.05;29.27;;;;;;;;;;4979311;28;20049;-84
2023/10/26 08:41:43;;;;;;;37.42;30.55;;;;;;;;;;4999877;28;20472;-84
2023/10/26 08:44:09;;;;;;;40.33;31.33;;;;;;;;;;4985397;28;20105;-84
2023/10/26 08:46:35;;;;;;;41.90;31.05;;;;;;;;;;4981652;28;20089;-84
2023/10/26 08:49:02;;;;;;;39.78;29.65;;;;;;;;;;4981317;28;20073;-83
2023/10/26 08:51:28;;;;;;;37.78;29.30;;;;;;;;;;4981171;28;20053;-83
2023/10/26 08:53:56;;;;;;;38.28;31.20;;;;;;;;;;4980705;28;20042;-84
2023/10/26 08:56:23;;;;;;;37.15;30.58;;;;;;;;;;4981222;28;20440;-84
2023/10/26 08:58:51;;;;;;;38.70;30.73;;;;;;;;;;4980464;28;20058;-85
2023/10/26 09:01:18;;;;;;;40.60;30.80;;;;;;;;;;4979434;28;20471;-82
2023/10/26 09:03:44;;;;;;;37.40;30.23;;;;;;;;;;4981232;28;20046;-83
2023/10/26 09:06:10;;;;;;;37.83;31.35;;;;;;;;;;4980953;28;20061;-83
2023/10/26 09:08:36;;;;;;;38.72;29.45;;;;;;;;;;4980077;28;20125;-81
2023/10/26 09:11:12;;;;;;;36.92;30.35;;;;;;;;;;4980821;28;20047;-83
2023/10/26 09:13:38;;;;;;;37.55;29.10;;;;;;;;;;4959230;28;20039;-84
2023/10/26 09:16:04;;;;;;;36.90;29.33;;;;;;;;;;4979573;28;20122;-84
2023/10/26 09:18:31;;;;;;;37.85;31.17;;;;;;;;;;4979916;28;20046;-84
2023/10/26 09:21:03;;;;;;;42.10;32.55;;;;;;;;;;4980045;28;20078;-84
2023/10/26 09:23:30;;;;;;;44.78;35.60;;;;;;;;;;4979763;28;20054;-85
2023/10/26 09:25:57;;;;;;;40.38;32.30;;;;;;;;;;4980472;28;20092;-84
2023/10/26 09:28:23;;;;;;;43.88;32.15;;;;;;;;;;4979570;28;20055;-85
2023/10/26 09:30:49;;;;;;;38.50;31.17;;;;;;;;;;4980329;28;20046;-85
2023/10/26 09:33:25;;;;;;;38.58;32.33;;;;;;;;;;4982883;28;20102;-84
2023/10/26 09:35:52;;;;;;;38.38;31.13;;;;;;;;;;4980035;28;20057;-84
2023/10/26 09:38:33;;;;;;;35.28;29.88;;;;;;;;;;4980247;28;20054;-84
2023/10/26 09:40:59;;;;;;;38.38;30.92;;;;;;;;;;4981488;28;20105;-84
2023/10/26 09:43:25;;;;;;;36.08;29.83;;;;;;;;;;4981362;28;20113;-84
2023/10/26 09:45:52;;;;;;;41.05;30.55;;;;;;;;;;4981637;28;20043;-84
2023/10/26 09:48:18;;;;;;;36.80;30.83;;;;;;;;;;4981247;28;20043;-85
2023/10/26 09:50:45;;;;;;;34.50;28.70;;;;;;;;;;4980012;28;20242;-85
2023/10/26 09:53:12;;;;;;;35.63;29.73;;;;;;;;;;4980552;28;20051;-84
2023/10/26 09:55:38;;;;;;;45.03;33.70;;;;;;;;;;4985502;28;20051;-83
2023/10/26 09:58:06;;;;;;;36.45;29.83;;;;;;;;;;4981528;28;20043;-84
2023/10/26 10:00:33;;;;;;;32.78;29.05;;;;;;;;;;4981217;28;20193;-84
2023/10/26 10:03:13;;;;;;;35.50;30.73;;;;;;;;;;4975305;28;20066;-84
2023/10/26 10:05:40;;;;;;;31.55;26.65;;;;;;;;;;4968750;28;20058;-84
2023/10/26 10:08:06;;;;;;;31.60;27.98;;;;;;;;;;4979874;28;20399;-85
2023/10/26 10:10:33;;;;;;;31.02;26.88;;;;;;;;;;4958808;29;20058;-84
2023/10/26 10:12:59;;;;;;;33.10;27.70;;;;;;;;;;4971286;28;20106;-85
2023/10/26 10:15:39;;;;;;;31.67;27.40;;;;;;;;;;4980360;28;20062;-85
2023/10/26 10:18:05;;;;;;;34.05;29.25;;;;;;;;;;4981559;28;20043;-84
2023/10/26 10:20:32;;;;;;;32.17;28.58;;;;;;;;;;4978135;28;20059;-84
2023/10/26 10:22:58;;;;;;;32.08;27.23;;;;;;;;;;4980007;28;20106;-82
2023/10/26 10:25:44;;;;;;;32.60;27.40;;;;;;;;;;4980854;28;20110;-85
2023/10/26 10:28:11;;;;;;;31.17;27.65;;;;;;;;;;4984699;28;20050;-85
2023/10/26 10:30:47;;;;;;;33.35;29.85;;;;;;;;;;4998942;28;20113;-85
2023/10/26 10:33:21;;;;;;;34.28;28.77;;;;;;;;;;4986166;28;20043;-84
2023/10/26 10:36:01;;;;;;;31.02;27.80;;;;;;;;;;4964913;28;20190;-84
2023/10/26 10:38:27;;;;;;;33.72;27.50;;;;;;;;;;4981783;28;20046;-84
2023/10/26 10:40:59;;;;;;;32.47;28.88;;;;;;;;;;4982217;28;20094;-83
2023/10/26 10:43:35;;;;;;;36.25;29.02;;;;;;;;;;4983208;28;20130;-84
2023/10/26 10:46:13;;;;;;;32.95;28.33;;;;;;;;;;4984090;28;20050;-84
2023/10/26 10:48:55;;;;;;;34.58;30.85;;;;;;;;;;4983899;28;20484;-84
2023/10/26 10:51:21;;;;;;;;;;;;;;;;;;4980990;28;20547;-84
2023/10/26 10:53:50;;;;;;;36.25;30.00;;;;;;;;;;4973099;28;20016;-84
2023/10/26 10:56:16;;;;;;;35.35;30.75;;;;;;;;;;4982657;28;20042;-84
2023/10/26 10:58:43;;;;;;;36.42;29.88;;;;;;;;;;4971886;28;20051;-84
2023/10/26 11:01:09;;;;;;;34.30;29.13;;;;;;;;;;4976831;28;20059;-84
2023/10/26 11:03:35;;;;;;;37.20;30.77;;;;;;;;;;4962688;28;20054;-84
2023/10/26 11:06:01;;;;;;;37.05;29.60;;;;;;;;;;4963399;28;20051;-83
2023/10/26 11:08:27;;;;;;;36.35;30.75;;;;;;;;;;4964949;28;20046;-84
2023/10/26 11:10:54;;;;;;;39.50;31.90;;;;;;;;;;4979708;28;20055;-85
2023/10/26 11:13:21;;;;;;;36.53;31.45;;;;;;;;;;4964631;28;20222;-83
2023/10/26 11:15:47;;;;;;;35.70;29.73;;;;;;;;;;4966045;29;20062;-84
2023/10/26 11:18:13;;;;;;;34.80;29.63;;;;;;;;;;4974169;28;20420;-83
2023/10/26 11:20:41;;;;;;;36.80;29.88;;;;;;;;;;4984502;28;20038;-84
2023/10/26 11:23:08;;;;;;;35.33;29.73;;;;;;;;;;4967182;28;20433;-84
2023/10/26 11:25:34;;;;;;;31.55;28.15;;;;;;;;;;4973471;28;20051;-84
2023/10/26 11:28:00;;;;;;;29.65;26.65;;;;;;;;;;4981042;28;20041;-84
2023/10/26 11:30:26;;;;;;;33.15;26.70;;;;;;;;;;4982859;28;20046;-83
2023/10/26 11:32:53;;;;;;;31.52;28.27;;;;;;;;;;4982646;28;20050;-84
2023/10/26 11:35:19;;;;;;;31.48;26.95;;;;;;;;;;4965456;28;20035;-84
2023/10/26 11:37:46;;;;;;;27.90;24.88;;;;;;;;;;4978408;28;20043;-83
2023/10/26 11:40:13;;;;;;;30.08;25.63;;;;;;;;;;4982289;28;20045;-84
2023/10/26 11:42:53;;;;;;;30.80;26.27;;;;;;;;;;4984300;28;20054;-84
2023/10/26 11:45:28;;;;;;;25.38;22.38;;;;;;;;;;4983316;28;20058;-85
2023/10/26 11:47:55;;;;;;;26.00;23.20;;;;;;;;;;4980414;28;20038;-82
2023/10/26 11:50:41;;;;;;;27.10;24.17;;;;;;;;;;4986270;28;20093;-83
2023/10/26 11:53:09;;;;;;;23.67;21.25;;;;;;;;;;4985397;28;20043;-83
2023/10/26 11:55:35;;;;;;;26.15;23.42;;;;;;;;;;4987199;28;20082;-84
2023/10/26 11:58:01;;;;;;;30.15;25.73;;;;;;;;;;4967637;28;20038;-84
2023/10/26 12:00:28;;;;;;;25.52;22.77;;;;;;;;;;4985721;28;20059;-84
2023/10/26 12:02:55;;;;;;;25.42;22.00;;;;;;;;;;4984035;28;20097;-84
2023/10/26 12:05:22;;;;;;;25.85;21.77;;;;;;;;;;4984343;28;20106;-84
2023/10/26 12:07:49;;;;;;;27.73;22.55;;;;;;;;;;4983224;28;20050;-84
2023/10/26 12:10:16;;;;;;;26.20;22.15;;;;;;;;;;4983265;28;20051;-85
2023/10/26 12:12:43;;;;;;;26.67;23.08;;;;;;;;;;4981390;28;20043;-84
2023/10/26 12:15:09;;;;;;;28.42;22.27;;;;;;;;;;4984639;28;20047;-85
2023/10/26 12:17:35;;;;;;;24.83;21.60;;;;;;;;;;4983997;28;20055;-84
2023/10/26 12:20:03;;;;;;;25.13;22.05;;;;;;;;;;4984056;28;20058;-84
2023/10/26 12:22:29;;;;;;;23.98;21.40;;;;;;;;;;4983654;28;20129;-84
2023/10/26 12:24:55;;;;;;;25.48;22.42;;;;;;;;;;4983152;28;20089;-84
2023/10/26 12:27:22;;;;;;;25.80;23.00;;;;;;;;;;4996915;28;20065;-84
2023/10/26 12:29:48;;;;;;;25.30;21.40;;;;;;;;;;4975035;28;20059;-84
2023/10/26 12:32:15;;;;;;;27.38;22.48;;;;;;;;;;4964567;29;20098;-83
2023/10/26 12:34:44;;;;;;;25.65;22.02;;;;;;;;;;4974016;28;20055;-84
2023/10/26 12:37:10;;;;;;;24.25;20.17;;;;;;;;;;4981320;28;20055;-83
2023/10/26 12:39:36;;;;;;;25.95;21.75;;;;;;;;;;4979875;28;20066;-83
2023/10/26 12:42:02;;;;;;;29.05;25.30;;;;;;;;;;4982409;28;20042;-84
2023/10/26 12:44:28;;;;;;;24.67;22.05;;;;;;;;;;4982251;28;20392;-84
2023/10/26 12:46:55;;;;;;;24.98;22.38;;;;;;;;;;4979405;28;20050;-83
2023/10/26 12:49:21;;;;;;;24.98;22.38;;;;;;;;;;4975452;28;20082;-84
2023/10/26 12:51:48;;;;;;;25.23;22.45;;;;;;;;;;4998689;28;20065;-84
2023/10/26 12:54:14;;;;;;;25.35;22.65;;;;;;;;;;5002585;28;20535;-84
2023/10/26 12:56:40;;;;;;;26.30;22.70;;;;;;;;;;4993738;28;20038;-85
2023/10/26 12:59:06;;;;;;;29.98;23.15;;;;;;;;;;4983057;28;20067;-84
2023/10/26 13:01:32;;;;;;;25.98;22.70;;;;;;;;;;4987652;28;20130;-85
2023/10/26 13:03:58;;;;;;;28.38;24.08;;;;;;;;;;4979422;28;20050;-84
2023/10/26 13:06:24;;;;;;;27.63;23.58;;;;;;;;;;4984966;28;20085;-84
2023/10/26 13:08:50;;;;;;;27.02;23.88;;;;;;;;;;4983439;28;20054;-85
2023/10/26 13:11:16;;;;;;;27.00;23.60;;;;;;;;;;4984266;28;20063;-85
2023/10/26 13:13:42;;;;;;;32.55;24.67;;;;;;;;;;4983329;28;20366;-84
2023/10/26 13:16:09;;;;;;;29.33;24.17;;;;;;;;;;4989039;28;20042;-83
2023/10/26 13:18:38;;;;;;;28.98;25.13;;;;;;;;;;4985595;28;20134;-84
2023/10/26 13:21:05;;;;;;;27.90;24.90;;;;;;;;;;4982789;28;20357;-83
2023/10/26 13:23:32;;;;;;;33.63;27.77;;;;;;;;;;4983481;28;20043;-83
2023/10/26 13:25:58;;;;;;;30.13;25.88;;;;;;;;;;4982903;28;20074;-84
2023/10/26 13:28:24;;;;;;;28.45;25.30;;;;;;;;;;4981215;28;20133;-83
2023/10/26 13:30:51;;;;;;;31.27;25.85;;;;;;;;;;4970041;28;20047;-84
2023/10/26 13:33:17;;;;;;;33.47;27.05;;;;;;;;;;4964119;28;20039;-84
2023/10/26 13:35:44;;;;;;;32.40;26.27;;;;;;;;;;4963899;29;20066;-84
2023/10/26 13:38:12;;;;;;;31.05;26.00;;;;;;;;;;4964107;29;20075;-85
2023/10/26 13:40:39;;;;;;;32.20;27.55;;;;;;;;;;4973542;28;20047;-84
2023/10/26 13:43:05;;;;;;;30.67;25.73;;;;;;;;;;4983766;28;20079;-84
2023/10/26 13:45:34;;;;;;;32.85;29.25;;;;;;;;;;4983182;28;20055;-85
2023/10/26 13:48:00;;;;;;;30.20;25.90;;;;;;;;;;4981752;28;20046;-84
2023/10/26 13:50:28;;;;;;;33.50;28.45;;;;;;;;;;4983684;28;20172;-84
2023/10/26 13:52:54;;;;;;;34.10;27.60;;;;;;;;;;4983433;28;20043;-84
2023/10/26 13:55:20;;;;;;;39.15;30.30;;;;;;;;;;4983757;28;20054;-84
2023/10/26 13:57:46;;;;;;;34.70;27.38;;;;;;;;;;4983846;28;20046;-83
2023/10/26 14:00:13;;;;;;;32.45;27.50;;;;;;;;;;4982907;28;20055;-83
2023/10/26 14:02:42;;;;;;;30.92;27.58;;;;;;;;;;4969513;28;20062;-83
2023/10/26 14:05:09;;;;;;;33.17;28.38;;;;;;;;;;4986966;28;20102;-83
2023/10/26 14:07:35;;;;;;;32.33;28.58;;;;;;;;;;4987035;28;20396;-84
2023/10/26 14:10:05;;;;;;;31.33;26.45;;;;;;;;;;4986923;28;20556;-84
2023/10/26 14:12:31;;;;;;;34.97;27.83;;;;;;;;;;4986646;28;20499;-84
2023/10/26 14:15:04;;;;;;;32.15;28.17;;;;;;;;;;4987030;28;20051;-84
2023/10/26 14:17:34;;;;;;;33.00;28.92;;;;;;;;;;4987168;28;20046;-85